Time;durP1;ratioP1;P1;durP2;ratioP2;P2;SDS_P1;SDS_P2;PMS_P1;PMS_P2;Temp;Humidity;BMP_temperature;BMP_pressure;BME280_temperature;BME280_humidity;BME280_pressure;Samples;Min_cycle;Max_cycle;Signal;HPM_P1;HPM_P2
2024/01/08 00:01:57;;;;;;;1.80;0.95;;;1.00;99.90;;;0.43;94.53;102118.13;5256487;28;20064;-46
2024/01/08 00:04:30;;;;;;;0.73;0.73;;;1.00;99.90;;;0.44;94.30;102112.25;5252915;28;20077;-46
2024/01/08 00:07:02;;;;;;;1.05;0.82;;;1.00;99.90;;;0.48;93.97;102106.66;5257302;28;20470;-47
2024/01/08 00:09:36;;;;;;;1.38;1.20;;;1.00;99.90;;;0.51;92.62;102118.09;5256053;28;20127;-45
2024/01/08 00:12:08;;;;;;;1.50;0.63;;;1.10;99.90;;;0.47;92.95;102110.88;5255253;28;20514;-46
2024/01/08 00:14:41;;;;;;;0.95;0.50;;;1.10;99.90;;;0.51;93.36;102127.47;5252459;28;20052;-46
2024/01/08 00:17:13;;;;;;;1.23;1.00;;;1.10;99.90;;;0.41;91.00;102124.78;5257656;28;20052;-46
2024/01/08 00:19:46;;;;;;;1.30;0.90;;;1.00;99.00;;;0.29;92.02;102124.50;5250082;28;20403;-46
2024/01/08 00:22:18;;;;;;;1.58;1.13;;;1.00;99.40;;;0.23;91.69;102119.69;5261941;28;20036;-45
2024/01/08 00:24:52;;;;;;;1.42;0.93;;;0.90;98.80;;;0.21;91.44;102126.34;5258600;28;20044;-46
2024/01/08 00:27:24;;;;;;;1.88;0.70;;;0.90;99.20;;;0.19;90.31;102122.69;5261772;28;20048;-46
2024/01/08 00:29:56;;;;;;;1.67;0.60;;;0.90;98.70;;;0.14;90.28;102123.94;5250105;28;20645;-46
2024/01/08 00:32:29;;;;;;;2.72;0.65;;;0.80;98.40;;;0.12;89.92;102120.28;5256057;28;20053;-46
2024/01/08 00:35:01;;;;;;;2.13;0.93;;;0.80;98.50;;;0.08;89.68;102127.56;5254046;28;20134;-46
2024/01/08 00:37:38;;;;;;;1.15;1.05;;;0.80;98.20;;;0.09;90.15;102124.25;5256760;28;20052;-45
2024/01/08 00:40:12;;;;;;;2.90;1.13;;;0.80;98.50;;;0.01;89.25;102123.50;5259151;28;20045;-46
2024/01/08 00:42:45;;;;;;;0.82;0.55;;;0.70;98.10;;;-0.03;90.04;102127.41;5263939;28;20746;-47
2024/01/08 00:45:17;;;;;;;1.13;0.68;;;0.70;98.40;;;0.00;91.26;102126.81;5273174;28;20233;-46
2024/01/08 00:47:50;;;;;;;1.27;0.90;;;0.70;99.10;;;0.06;92.77;102126.47;5260664;28;20499;-46
2024/01/08 00:50:23;;;;;;;3.50;1.05;;;0.70;99.40;;;0.14;92.76;102129.06;5256899;28;20445;-46
2024/01/08 00:52:55;;;;;;;0.45;0.45;;;0.80;99.50;;;0.12;90.33;102128.00;5253016;28;20048;-46
2024/01/08 00:55:29;;;;;;;0.52;0.52;;;0.80;98.50;;;0.09;90.79;102124.25;5260462;28;20569;-46
2024/01/08 00:58:02;;;;;;;2.40;1.27;;;0.80;97.90;;;0.12;90.79;102130.56;5262355;28;20048;-47
2024/01/08 01:00:34;;;;;;;0.47;0.47;;;0.80;98.20;;;0.11;90.61;102128.75;5255326;28;20071;-46
2024/01/08 01:03:06;;;;;;;0.65;0.63;;;0.80;98.50;;;0.15;90.76;102124.84;5252015;28;20059;-46
2024/01/08 01:05:39;;;;;;;0.85;0.85;;;0.80;98.70;;;0.13;89.00;102118.63;5255260;28;20040;-46
2024/01/08 01:08:12;;;;;;;0.60;0.60;;;0.80;98.00;;;0.20;90.09;102123.63;5255721;28;20044;-46
2024/01/08 01:10:45;;;;;;;1.45;0.90;;;0.80;98.40;;;0.23;90.08;102116.22;5267363;28;20048;-46
2024/01/08 01:13:18;;;;;;;0.47;0.47;;;0.90;98.60;;;0.19;88.72;102122.69;5260663;28;20090;-46
2024/01/08 01:15:50;;;;;;;0.57;0.57;;;0.80;97.60;;;0.20;88.85;102123.63;5253016;28;20507;-45
2024/01/08 01:18:23;;;;;;;1.25;1.00;;;0.80;97.90;;;0.24;89.84;102128.28;5263166;28;20410;-46
2024/01/08 01:20:55;;;;;;;0.93;0.82;;;0.80;98.30;;;0.19;88.85;102130.38;5255017;28;20494;-46
2024/01/08 01:23:28;;;;;;;0.73;0.73;;;0.80;97.70;;;0.14;88.82;102129.06;5252014;28;20114;-46
2024/01/08 01:26:01;;;;;;;1.45;0.68;;;0.80;97.60;;;0.17;89.35;102123.31;5256870;28;20037;-46
2024/01/08 01:28:34;;;;;;;1.05;0.93;;;0.80;98.00;;;0.23;89.60;102126.47;5248378;28;20528;-46
2024/01/08 01:31:06;;;;;;;0.90;0.90;;;0.80;98.10;;;0.21;88.80;102126.34;5250781;28;20051;-46
2024/01/08 01:33:39;;;;;;;2.50;0.93;;;0.90;97.90;;;0.23;88.70;102127.38;5256297;28;20044;-46
2024/01/08 01:36:11;;;;;;;1.25;0.88;;;0.90;97.90;;;0.29;89.57;102123.59;5253962;28;20548;-46
2024/01/08 01:38:45;;;;;;;0.63;0.63;;;0.90;98.20;;;0.30;89.21;102126.31;5248151;28;20044;-46
2024/01/08 01:41:19;;;;;;;1.20;1.10;;;0.90;98.20;;;0.28;89.64;102130.41;5260455;28;20937;-46
2024/01/08 01:43:51;;;;;;;0.80;0.80;;;0.90;98.40;;;0.34;89.83;102138.69;5260950;28;20044;-46
2024/01/08 01:46:28;;;;;;;1.05;0.93;;;0.90;98.50;;;0.40;90.31;102139.28;5260356;28;20055;-47
2024/01/08 01:49:01;;;;;;;1.92;1.27;;;1.00;98.50;;;0.40;90.50;102138.38;5250891;28;20043;-46
2024/01/08 01:51:34;;;;;;;0.75;0.73;;;1.00;98.90;;;0.39;89.49;102139.09;5261125;28;20404;-45
2024/01/08 01:54:06;;;;;;;0.90;0.90;;;1.00;98.60;;;0.43;91.25;102146.34;5251172;28;20055;-46
2024/01/08 01:56:41;;;;;;;2.88;0.88;;;1.00;98.80;;;0.44;90.90;102140.47;5252062;28;20040;-46
2024/01/08 01:59:17;;;;;;;0.82;0.82;;;1.00;98.80;;;0.47;90.58;102143.34;5252203;28;20044;-46
2024/01/08 02:01:50;;;;;;;0.65;0.65;;;1.00;98.80;;;0.51;90.81;102127.47;5244499;28;20052;-46
2024/01/08 02:04:23;;;;;;;0.68;0.50;;;1.00;98.90;;;0.51;91.67;102130.03;5252737;28;20136;-46
2024/01/08 02:06:57;;;;;;;0.88;0.60;;;1.00;99.40;;;0.54;92.65;102138.03;5259210;28;20052;-47
2024/01/08 02:09:29;;;;;;;1.10;0.95;;;1.10;99.70;;;0.60;93.30;102136.06;5251409;28;20041;-46
2024/01/08 02:12:04;;;;;;;1.80;1.08;;;1.10;99.90;;;0.63;93.01;102128.66;5255883;28;20048;-46
2024/01/08 02:14:36;;;;;;;1.75;1.00;;;1.20;99.90;;;0.65;94.25;102123.66;5254948;28;20131;-46
2024/01/08 02:17:08;;;;;;;1.95;1.27;;;1.20;99.90;;;0.70;95.04;102130.13;5254850;28;20048;-46
2024/01/08 02:19:41;;;;;;;3.25;1.60;;;1.20;99.90;;;0.74;95.56;102127.09;5250894;28;20055;-47
2024/01/08 02:22:13;;;;;;;2.42;1.60;;;1.20;99.90;;;0.73;96.87;102126.22;5253655;28;20051;-46
2024/01/08 02:24:47;;;;;;;3.25;1.88;;;1.20;99.90;;;0.66;97.63;102128.94;5263690;28;20041;-46
2024/01/08 02:27:19;;;;;;;4.53;1.60;;;1.10;99.90;;;0.63;97.71;102122.59;5259702;28;20545;-46
2024/01/08 02:29:52;;;;;;;3.33;1.42;;;1.20;99.90;;;0.63;98.50;102127.75;5258041;28;20048;-45
2024/01/08 02:32:24;;;;;;;2.40;1.15;;;1.10;99.90;;;0.62;98.42;102116.56;5258510;28;20055;-46
2024/01/08 02:34:56;;;;;;;1.70;1.60;;;1.10;99.90;;;0.61;98.73;102121.56;5250915;28;20044;-46
2024/01/08 02:37:29;;;;;;;1.88;1.55;;;1.10;99.90;;;0.62;98.88;102116.56;5251755;28;20056;-46
2024/01/08 02:40:03;;;;;;;4.47;2.22;;;1.10;99.90;;;0.64;98.90;102119.28;5261999;28;20044;-46
2024/01/08 02:42:35;;;;;;;1.92;1.40;;;1.20;99.90;;;0.63;99.08;102123.50;5250799;28;20422;-46
2024/01/08 02:45:09;;;;;;;2.35;1.55;;;1.10;99.90;;;0.60;99.18;102122.34;5260902;28;20044;-47
2024/01/08 02:47:41;;;;;;;3.08;1.67;;;1.10;99.90;;;0.47;98.90;102112.56;5260636;28;20066;-46
2024/01/08 02:50:14;;;;;;;1.90;1.27;;;1.00;99.90;;;0.46;100.00;102128.72;5252853;28;20055;-47
2024/01/08 02:52:46;;;;;;;1.70;1.23;;;1.00;99.90;;;0.42;99.28;102122.38;5251551;28;20040;-47
2024/01/08 02:55:20;;;;;;;1.63;1.52;;;1.00;99.90;;;0.42;98.79;102124.03;5253800;28;20051;-45
2024/01/08 02:57:52;;;;;;;2.25;1.27;;;0.90;99.90;;;0.44;99.11;102125.06;5247483;28;20042;-47
2024/01/08 03:00:25;;;;;;;3.08;1.73;;;1.00;99.90;;;0.45;99.34;102126.88;5254665;28;20040;-46
2024/01/08 03:02:57;;;;;;;5.35;2.05;;;0.90;99.90;;;0.43;98.90;102131.88;5251995;28;20582;-46
2024/01/08 03:05:30;;;;;;;2.40;1.20;;;0.90;99.90;;;0.43;98.99;102131.88;5248073;28;20041;-46
2024/01/08 03:08:02;;;;;;;3.22;1.90;;;0.90;99.90;;;0.44;99.04;102135.34;5250970;28;20051;-46
2024/01/08 03:10:36;;;;;;;3.88;1.17;;;1.00;99.90;;;0.48;99.25;102138.34;5253924;28;20048;-46
2024/01/08 03:13:08;;;;;;;2.70;1.33;;;1.00;99.90;;;0.49;98.58;102147.84;5258478;28;20410;-46
2024/01/08 03:15:40;;;;;;;7.20;1.80;;;1.00;99.90;;;0.50;100.00;102143.63;5256682;28;20048;-46
2024/01/08 03:18:13;;;;;;;2.72;1.48;;;1.00;99.90;;;0.44;98.74;102145.59;5257216;28;20048;-46
2024/01/08 03:20:45;;;;;;;3.35;1.77;;;1.00;99.90;;;0.46;99.54;102151.81;5252749;28;20036;-46
2024/01/08 03:23:18;;;;;;;2.75;1.98;;;1.00;99.90;;;0.46;98.95;102150.13;5245231;28;20052;-46
2024/01/08 03:25:52;;;;;;;1.85;1.27;;;1.00;99.90;;;0.45;98.89;102152.53;5249648;28;20044;-45
2024/01/08 03:28:24;;;;;;;2.60;1.30;;;1.00;99.90;;;0.41;99.56;102151.34;5245714;28;20052;-46
2024/01/08 03:30:56;;;;;;;3.03;1.77;;;0.90;99.90;;;0.41;100.00;102150.44;5255669;28;20047;-45
2024/01/08 03:33:29;;;;;;;1.83;1.40;;;0.90;99.90;;;0.35;99.94;102157.56;5249001;28;20059;-46
2024/01/08 03:36:02;;;;;;;3.83;2.28;;;0.90;99.90;;;0.32;100.00;102149.53;5260539;28;20075;-46
2024/01/08 03:38:35;;;;;;;4.18;1.60;;;0.90;99.90;;;0.35;100.00;102154.97;5246532;28;20052;-47
2024/01/08 03:41:08;;;;;;;1.35;0.95;;;0.90;99.90;;;0.36;100.00;102162.81;5252494;28;20398;-46
2024/01/08 03:43:43;;;;;;;1.83;1.35;;;0.90;99.90;;;0.34;100.00;102163.44;5253462;28;20694;-47
2024/01/08 03:46:16;;;;;;;1.80;1.45;;;0.90;99.90;;;0.36;100.00;102161.91;5253453;28;20044;-46
2024/01/08 03:48:49;;;;;;;3.17;1.50;;;0.80;99.90;;;0.34;100.00;102160.88;5265714;28;20076;-47
2024/01/08 03:51:21;;;;;;;3.60;1.60;;;0.90;99.90;;;0.29;100.00;102159.50;5252067;28;20048;-47
2024/01/08 03:53:54;;;;;;;2.67;1.60;;;0.80;99.90;;;0.23;100.00;102160.72;5250810;28;20414;-46
2024/01/08 03:56:28;;;;;;;2.10;1.17;;;0.80;99.90;;;0.23;100.00;102163.28;5243720;28;20417;-46
2024/01/08 03:59:00;;;;;;;3.75;1.48;;;0.80;99.90;;;0.22;100.00;102153.78;5246957;28;20059;-47
2024/01/08 04:01:33;;;;;;;2.17;1.83;;;0.80;99.90;;;0.21;100.00;102161.34;5248572;28;20048;-46
2024/01/08 04:04:05;;;;;;;1.35;1.23;;;0.80;99.90;;;0.23;100.00;102160.72;5257420;28;20560;-47
2024/01/08 04:06:38;;;;;;;3.03;1.73;;;0.80;99.90;;;0.24;100.00;102162.53;5254639;28;20570;-46
2024/01/08 04:09:10;;;;;;;3.58;1.85;;;0.80;99.90;;;0.26;100.00;102165.22;5260079;28;20037;-46
2024/01/08 04:11:44;;;;;;;3.42;2.35;;;0.80;99.90;;;0.25;100.00;102156.63;5248017;28;20052;-46
2024/01/08 04:14:17;;;;;;;3.92;2.08;;;0.80;99.90;;;0.24;100.00;102151.38;5257326;28;20043;-46
2024/01/08 04:16:49;;;;;;;3.72;1.33;;;0.80;99.90;;;0.19;100.00;102150.91;5248967;28;20071;-46
2024/01/08 04:19:21;;;;;;;1.70;1.60;;;0.80;99.90;;;0.21;100.00;102154.56;5254819;28;20083;-46
2024/01/08 04:21:54;;;;;;;2.75;1.63;;;0.70;99.90;;;0.18;100.00;102155.88;5251711;28;20502;-46
2024/01/08 04:24:26;;;;;;;2.10;1.52;;;0.70;99.90;;;0.16;100.00;102158.31;5253764;28;20059;-46
2024/01/08 04:27:00;;;;;;;3.50;1.80;;;0.70;99.90;;;0.14;100.00;102159.84;5252758;28;20040;-46
2024/01/08 04:29:32;;;;;;;3.20;1.95;;;0.70;99.90;;;0.15;100.00;102160.75;5252813;28;20063;-46
2024/01/08 04:32:06;;;;;;;2.33;1.55;;;0.70;99.90;;;0.09;100.00;102157.56;5244618;28;20411;-46
2024/01/08 04:34:38;;;;;;;3.60;2.08;;;0.70;99.90;;;0.08;100.00;102156.66;5250365;28;20109;-46
2024/01/08 04:37:10;;;;;;;2.00;1.05;;;0.60;99.90;;;0.11;100.00;102153.50;5258091;28;20090;-46
2024/01/08 04:39:43;;;;;;;6.78;2.03;;;0.60;99.90;;;0.09;100.00;102155.00;5246374;28;20067;-46
2024/01/08 04:42:17;;;;;;;2.38;1.88;;;0.60;99.90;;;0.08;100.00;102151.53;5249132;28;20431;-46
2024/01/08 04:44:49;;;;;;;2.20;1.40;;;0.60;99.90;;;0.10;100.00;102150.03;5254953;28;20047;-46
2024/01/08 04:47:22;;;;;;;1.52;1.10;;;0.60;99.90;;;0.12;100.00;102158.75;5259447;28;20058;-47
2024/01/08 04:49:54;;;;;;;7.07;1.90;;;0.60;99.90;;;0.15;100.00;102151.38;5261700;28;20099;-46
2024/01/08 04:52:27;;;;;;;2.22;1.42;;;0.70;99.90;;;0.16;100.00;102152.28;5252075;28;20052;-46
2024/01/08 04:54:59;;;;;;;1.90;1.63;;;0.70;99.90;;;0.16;100.00;102165.09;5249488;28;20051;-45
2024/01/08 04:57:33;;;;;;;2.53;1.02;;;0.70;99.90;;;0.17;100.00;102162.69;5246870;28;20057;-46
2024/01/08 05:00:07;;;;;;;2.45;1.85;;;0.70;99.90;;;0.19;100.00;102158.59;5255196;28;20082;-46
2024/01/08 05:02:40;;;;;;;4.60;1.80;;;0.70;99.90;;;0.18;100.00;102164.50;5255877;28;20049;-46
2024/01/08 05:05:12;;;;;;;2.45;1.30;;;0.70;99.90;;;0.18;100.00;102166.16;5253534;28;20449;-47
2024/01/08 05:07:44;;;;;;;7.95;2.70;;;0.70;99.90;;;0.13;100.00;102163.16;5253740;28;20052;-46
2024/01/08 05:10:17;;;;;;;1.83;1.60;;;0.70;99.90;;;0.15;100.00;102165.88;5255326;28;20048;-46
2024/01/08 05:12:51;;;;;;;1.45;1.35;;;0.60;99.90;;;0.16;100.00;102160.88;5252500;28;20046;-46
2024/01/08 05:15:24;;;;;;;4.28;1.67;;;0.70;99.90;;;0.12;100.00;102170.69;5255917;28;20040;-46
2024/01/08 05:17:56;;;;;;;2.45;1.75;;;0.60;99.90;;;0.09;100.00;102166.16;5257296;28;20048;-46
2024/01/08 05:20:30;;;;;;;2.20;1.40;;;0.60;99.90;;;0.14;100.00;102170.09;5250474;28;20445;-46
2024/01/08 05:23:03;;;;;;;3.90;2.80;;;0.70;99.90;;;0.14;100.00;102170.09;5252984;28;20142;-46
2024/01/08 05:25:36;;;;;;;1.92;1.63;;;0.70;99.90;;;0.12;100.00;102166.44;5251373;28;20038;-46
2024/01/08 05:28:10;;;;;;;3.25;1.90;;;0.60;99.90;;;0.09;100.00;102168.72;5250903;28;20515;-46
2024/01/08 05:30:43;;;;;;;5.50;3.00;;;0.60;99.90;;;0.00;100.00;102165.28;5246962;28;20457;-47
2024/01/08 05:33:15;;;;;;;4.07;1.92;;;0.60;99.90;;;-0.06;100.00;102157.88;5250775;28;20055;-46
2024/01/08 05:35:47;;;;;;;10.30;2.75;;;0.50;99.90;;;-0.05;100.00;102157.13;5247469;28;20097;-46
2024/01/08 05:38:20;;;;;;;3.35;1.92;;;0.50;99.90;;;-0.04;100.00;102168.28;5256433;28;20048;-46
2024/01/08 05:40:55;;;;;;;2.42;1.95;;;0.50;99.90;;;-0.04;100.00;102170.84;5247668;28;20056;-46
2024/01/08 05:43:29;;;;;;;3.75;1.80;;;0.50;99.90;;;-0.02;100.00;102166.75;5253626;28;20056;-46
2024/01/08 05:46:02;;;;;;;3.60;2.00;;;0.50;99.90;;;-0.01;100.00;102155.75;5256716;28;20498;-45
2024/01/08 05:48:37;;;;;;;3.45;2.00;;;0.50;99.90;;;0.01;100.00;102166.19;5250859;28;20143;-47
2024/01/08 05:51:09;;;;;;;5.30;2.10;;;0.50;99.90;;;-0.01;100.00;102148.06;5266588;28;20044;-47
2024/01/08 05:53:42;;;;;;;3.30;1.80;;;0.50;99.90;;;-0.02;100.00;102146.25;5247505;28;20048;-45
2024/01/08 05:56:14;;;;;;;4.75;2.10;;;0.50;99.90;;;-0.01;100.00;102151.53;5244782;28;20035;-47
2024/01/08 05:58:48;;;;;;;3.88;2.15;;;0.50;99.90;;;0.00;100.00;102144.75;5247506;28;20400;-46
2024/01/08 06:01:21;;;;;;;6.32;2.75;;;0.50;99.90;;;-0.01;100.00;102148.06;5251915;28;20048;-46
2024/01/08 06:03:53;;;;;;;4.85;2.35;;;0.50;99.90;;;-0.04;100.00;102158.03;5246682;28;20139;-45
2024/01/08 06:06:24;;;;;;;2.13;1.83;;;0.50;99.90;;;-0.04;100.00;102152.91;5259770;28;20051;-46
2024/01/08 06:08:57;;;;;;;2.78;1.27;;;0.50;99.90;;;-0.02;100.00;102153.94;5252497;28;20515;-45
2024/01/08 06:11:29;;;;;;;4.50;2.03;;;0.50;99.90;;;-0.03;100.00;102159.84;5263238;28;20056;-47
2024/01/08 06:14:05;;;;;;;7.20;2.72;;;0.50;99.90;;;-0.04;100.00;102158.03;5248362;28;20064;-46
2024/01/08 06:16:37;;;;;;;;;;;0.50;99.90;;;-0.02;100.00;102161.63;5257075;28;20046;-46
2024/01/08 06:19:10;;;;;;;2.63;1.67;;;0.50;99.90;;;-0.04;100.00;102152.91;5258007;28;19928;-45
2024/01/08 06:21:42;;;;;;;6.32;2.40;;;0.50;99.90;;;-0.06;100.00;102157.88;5253509;28;20510;-46
2024/01/08 06:24:14;;;;;;;7.88;3.05;;;0.50;99.90;;;-0.06;100.00;102151.84;5258637;28;20036;-46
2024/01/08 06:26:47;;;;;;;1.70;1.60;;;0.50;99.90;;;-0.04;100.00;102155.47;5259069;28;20421;-47
2024/01/08 06:29:20;;;;;;;2.90;2.15;;;0.50;99.90;;;-0.04;100.00;102163.16;5253982;28;20106;-46
2024/01/08 06:31:53;;;;;;;3.83;1.52;;;0.50;99.90;;;-0.05;100.00;102158.78;5248927;28;20511;-46
2024/01/08 06:34:25;;;;;;;2.42;1.50;;;0.40;99.90;;;-0.04;100.00;102152.91;5252931;28;20048;-46
2024/01/08 06:36:58;;;;;;;3.58;2.15;;;0.50;99.90;;;-0.03;100.00;102163.28;5252982;28;20059;-45
2024/01/08 06:39:30;;;;;;;4.15;1.92;;;0.50;99.90;;;0.00;100.00;102170.41;5251088;28;20135;-44
2024/01/08 06:42:03;;;;;;;4.30;1.77;;;0.50;99.90;;;0.01;100.00;102161.97;5255110;28;20044;-45
2024/01/08 06:44:36;;;;;;;3.35;1.75;;;0.50;99.90;;;0.03;100.00;102163.00;5265142;28;20048;-44
2024/01/08 06:47:09;;;;;;;2.72;1.77;;;0.50;99.90;;;0.04;100.00;102159.66;5264566;28;20047;-46
2024/01/08 06:49:41;;;;;;;5.40;2.28;;;0.50;99.90;;;0.06;100.00;102164.94;5257875;28;20056;-45
2024/01/08 06:52:13;;;;;;;5.57;2.90;;;0.60;99.90;;;0.10;100.00;102167.97;5264312;28;20052;-45
2024/01/08 06:54:46;;;;;;;5.35;2.25;;;0.60;99.90;;;0.13;100.00;102167.34;5251383;28;20047;-45
2024/01/08 06:57:18;;;;;;;3.78;2.05;;;0.60;99.90;;;0.07;100.00;102157.44;5263753;28;20422;-44
2024/01/08 06:59:55;;;;;;;2.90;1.63;;;0.60;99.90;;;0.08;100.00;102163.47;5255900;28;20067;-44
2024/01/08 07:02:27;;;;;;;3.10;2.30;;;0.60;99.90;;;0.07;100.00;102164.22;5256432;28;20058;-45
2024/01/08 07:05:00;;;;;;;3.10;1.83;;;0.60;99.90;;;0.08;100.00;102158.34;5272524;28;20044;-45
2024/01/08 07:07:32;;;;;;;2.40;1.58;;;0.60;99.90;;;0.05;100.00;102153.78;5247665;28;20439;-44
2024/01/08 07:10:05;;;;;;;9.27;2.53;;;0.60;99.90;;;0.02;100.00;102155.16;5255711;28;20040;-44
2024/01/08 07:12:38;;;;;;;2.20;1.13;;;0.60;99.90;;;0.00;100.00;102160.16;5264261;28;20051;-43
2024/01/08 07:15:43;;;;;;;1.92;1.77;;;0.50;99.90;;;0.02;100.00;102143.25;5251303;28;20399;-44
2024/01/08 07:18:17;;;;;;;3.55;1.52;;;0.50;99.90;;;0.04;100.00;102146.84;5257407;28;20227;-45
2024/01/08 07:20:50;;;;;;;9.15;1.45;;;0.50;99.90;;;0.03;100.00;102150.19;5245428;28;20051;-45
2024/01/08 07:23:25;;;;;;;2.53;1.13;;;0.50;99.90;;;0.01;100.00;102169.66;5259356;28;20118;-44
2024/01/08 07:26:01;;;;;;;2.47;1.48;;;0.50;99.90;;;-0.01;100.00;102168.56;5243410;28;20049;-45
2024/01/08 07:28:33;;;;;;;;;;;0.50;99.90;;;-0.03;100.00;102167.53;5260485;28;20045;-44
2024/01/08 07:31:06;;;;;;;1.98;1.48;;;0.50;99.90;;;-0.05;100.00;102158.78;5261249;28;20337;-43
2024/01/08 07:33:40;;;;;;;1.38;1.17;;;0.50;99.90;;;-0.08;100.00;102168.72;5257146;28;20055;-45
2024/01/08 07:36:14;;;;;;;2.28;1.00;;;0.50;99.90;;;-0.12;100.00;102164.06;5256489;28;20054;-44
2024/01/08 07:38:46;;;;;;;3.90;1.88;;;0.50;99.90;;;-0.09;100.00;102164.34;5257442;28;20696;-45
2024/01/08 07:41:18;;;;;;;1.98;1.38;;;0.50;99.90;;;-0.09;100.00;102165.25;5251310;28;20059;-45
2024/01/08 07:43:54;;;;;;;1.67;1.30;;;0.50;99.90;;;-0.05;100.00;102167.38;5253243;28;20228;-44
2024/01/08 07:46:27;;;;;;;;;;;0.50;99.90;;;-0.01;100.00;102183.94;5248812;28;20512;-45
2024/01/08 07:49:00;;;;;;;3.45;1.80;;;0.50;99.90;;;0.01;100.00;102176.44;5262489;28;19920;-44
2024/01/08 07:51:32;;;;;;;0.65;0.65;;;0.50;99.90;;;0.04;100.00;102181.84;5249107;28;20059;-46
2024/01/08 07:54:05;;;;;;;2.05;1.08;;;0.50;99.90;;;0.05;100.00;102187.13;5275163;28;20055;-44
2024/01/08 07:56:38;;;;;;;2.85;1.52;;;0.60;99.90;;;0.07;100.00;102190.75;5258401;28;20055;-44
2024/01/08 07:59:12;;;;;;;2.63;1.63;;;0.60;99.90;;;0.10;100.00;102185.91;5244157;28;20052;-43
2024/01/08 08:01:45;;;;;;;1.85;1.30;;;0.60;99.90;;;0.13;100.00;102173.41;5263574;28;20048;-44
2024/01/08 08:04:18;;;;;;;2.22;1.23;;;0.60;99.90;;;0.13;100.00;102182.75;5261038;28;20427;-44
2024/01/08 08:06:50;;;;;;;3.60;1.50;;;0.70;99.90;;;0.14;100.00;102189.72;5246298;28;20047;-44
2024/01/08 08:09:22;;;;;;;1.67;1.58;;;0.70;99.90;;;0.14;100.00;102182.91;5257360;28;20056;-44
2024/01/08 08:11:58;;;;;;;1.05;0.93;;;0.70;99.90;;;0.15;100.00;102182.16;5260869;28;20048;-44
2024/01/08 08:14:30;;;;;;;1.65;1.33;;;0.70;99.90;;;0.20;100.00;102191.22;5252419;28;20048;-50
2024/01/08 08:17:04;;;;;;;2.55;1.65;;;0.70;99.90;;;0.22;100.00;102187.13;5243686;28;20052;-44
2024/01/08 08:19:37;;;;;;;1.25;1.13;;;0.80;99.90;;;0.21;100.00;102187.88;5266847;28;20052;-45
2024/01/08 08:22:11;;;;;;;2.60;1.00;;;0.70;99.90;;;0.16;100.00;102190.75;5263894;28;20052;-46
2024/01/08 08:24:44;;;;;;;0.93;0.77;;;0.80;99.90;;;0.19;100.00;102188.47;5247875;28;20040;-44
2024/01/08 08:27:17;;;;;;;1.60;1.27;;;0.80;99.90;;;0.23;99.21;102188.94;5256440;28;20068;-44
2024/01/08 08:29:49;;;;;;;2.88;1.65;;;0.80;99.90;;;0.28;98.63;102183.38;5259356;28;20434;-44
2024/01/08 08:32:23;;;;;;;1.15;1.00;;;0.80;99.90;;;0.33;99.60;102192.41;5257502;28;20053;-44
2024/01/08 08:34:56;;;;;;;3.80;1.17;;;0.90;99.90;;;0.34;98.96;102189.09;5272131;28;20059;-44
2024/01/08 08:37:28;;;;;;;1.08;0.98;;;0.90;99.90;;;0.38;99.27;102201.44;5221314;28;20095;-43
2024/01/08 08:40:05;;;;;;;1.80;0.95;;;0.90;99.90;;;0.41;99.83;102201.75;5248343;28;20053;-45
2024/01/08 08:42:37;;;;;;;2.25;1.42;;;0.90;99.90;;;0.43;99.03;102210.50;5239342;28;20056;-43
2024/01/08 08:45:10;;;;;;;4.18;1.42;;;1.00;99.90;;;0.43;97.36;102215.63;5254593;28;20084;-43
2024/01/08 08:47:44;;;;;;;2.63;1.38;;;1.00;99.90;;;0.45;97.96;102216.69;5230861;28;20442;-44
2024/01/08 08:50:17;;;;;;;1.88;0.98;;;1.00;99.90;;;0.41;97.53;102209.47;5251380;28;20067;-44
2024/01/08 08:52:49;;;;;;;1.08;0.98;;;1.00;99.90;;;0.48;99.49;102217.00;5243853;28;20440;-43
2024/01/08 08:55:22;;;;;;;2.13;1.13;;;1.00;99.90;;;1.21;100.00;102228.28;5256950;28;20053;-41
2024/01/08 08:57:57;;;;;;;1.50;1.00;;;1.50;99.90;;;1.22;100.00;102228.44;5240380;28;20060;-43
2024/01/08 09:00:30;;;;;;;3.63;1.83;;;1.80;99.90;;;1.22;100.00;102230.09;5232339;28;20186;-43
2024/01/08 09:03:03;;;;;;;2.30;1.40;;;1.80;99.90;;;1.06;99.41;102232.88;5234515;28;20049;-42
2024/01/08 09:05:36;;;;;;;2.03;1.15;;;1.70;99.90;;;0.88;99.10;102236.25;5228872;28;20639;-42
2024/01/08 09:08:08;;;;;;;2.97;1.42;;;1.50;99.90;;;0.78;99.55;102235.38;5244449;28;20102;-44
2024/01/08 09:10:41;;;;;;;2.35;2.10;;;1.50;99.90;;;0.71;99.68;102235.50;5245714;28;20048;-43
2024/01/08 09:13:13;;;;;;;1.67;1.58;;;1.40;99.90;;;0.62;100.00;102239.75;5241516;28;20087;-43
2024/01/08 09:15:45;;;;;;;2.15;1.40;;;1.30;99.90;;;0.59;100.00;102242.03;5164159;28;20071;-44
2024/01/08 09:18:19;;;;;;;2.15;1.17;;;1.20;99.90;;;0.41;100.00;102243.72;5252238;28;20281;-43
2024/01/08 09:20:52;;;;;;;1.50;1.10;;;1.10;99.90;;;0.26;100.00;102243.13;5260514;28;20062;-43
2024/01/08 09:23:24;;;;;;;1.45;1.35;;;1.00;99.90;;;0.19;100.00;102240.66;5209449;28;20051;-43
2024/01/08 09:25:56;;;;;;;2.33;1.38;;;0.90;99.90;;;0.25;100.00;102237.81;5247474;28;20063;-43
2024/01/08 09:28:29;;;;;;;2.25;1.20;;;0.90;99.90;;;0.35;100.00;102247.34;5260678;28;20502;-44
2024/01/08 09:31:02;;;;;;;3.05;1.95;;;0.90;99.90;;;0.35;100.00;102255.03;5265497;28;20142;-43
2024/01/08 09:33:36;;;;;;;2.00;1.23;;;0.90;99.90;;;0.56;100.00;102254.56;5260539;28;20052;-44
2024/01/08 09:36:12;;;;;;;2.33;1.35;;;1.00;99.90;;;0.66;100.00;102249.59;5262331;28;20051;-44
2024/01/08 09:38:46;;;;;;;2.90;1.63;;;1.20;99.90;;;0.78;100.00;102253.34;5248966;28;20048;-43
2024/01/08 09:41:18;;;;;;;1.98;1.42;;;1.30;99.90;;;0.76;100.00;102249.69;5261617;28;20068;-45
2024/01/08 09:43:52;;;;;;;3.33;1.38;;;1.30;99.90;;;0.80;100.00;102251.81;5244485;28;20418;-43
2024/01/08 09:46:28;;;;;;;3.10;1.23;;;1.30;99.90;;;0.93;100.00;102248.78;5255436;28;20068;-42
2024/01/08 09:49:03;;;;;;;2.40;1.48;;;1.40;99.90;;;0.89;99.16;102251.78;5255129;28;20300;-43
2024/01/08 09:51:36;;;;;;;4.07;1.65;;;1.40;99.90;;;0.91;97.88;102250.25;5256715;28;20049;-43
2024/01/08 09:54:12;;;;;;;2.78;1.55;;;1.50;99.90;;;1.05;98.42;102254.19;5259408;28;20044;-45
2024/01/08 09:56:46;;;;;;;2.85;1.48;;;1.50;99.90;;;1.18;97.79;102248.56;5244170;28;20041;-44
2024/01/08 09:59:18;;;;;;;3.33;1.60;;;1.60;99.90;;;1.36;97.55;102246.03;5258830;28;20076;-44
2024/01/08 10:01:50;;;;;;;3.55;1.63;;;1.80;99.90;;;1.61;97.66;102246.69;5250227;28;20052;-43
2024/01/08 10:04:26;;;;;;;2.20;1.05;;;1.90;99.90;;;1.81;96.72;102240.81;5256916;28;20090;-43
2024/01/08 10:07:05;;;;;;;2.53;1.70;;;2.00;99.90;;;2.05;95.83;102257.63;5262759;28;20053;-44
2024/01/08 10:09:38;;;;;;;1.95;1.30;;;2.20;99.90;;;2.09;94.63;102233.09;5258231;28;20044;-43
2024/01/08 10:12:11;;;;;;;2.00;1.63;;;2.30;99.90;;;2.05;93.68;102233.56;5256972;28;20441;-44
2024/01/08 10:14:43;;;;;;;2.33;1.35;;;2.40;99.90;;;2.03;93.80;102235.13;5261570;28;20576;-43
2024/01/08 10:17:15;;;;;;;3.67;1.50;;;2.40;99.90;;;1.95;92.40;102236.03;5255128;28;20102;-43
2024/01/08 10:19:50;;;;;;;1.38;1.13;;;2.30;99.80;;;1.83;92.46;102231.59;5258124;28;20133;-44
2024/01/08 10:22:25;;;;;;;2.25;1.50;;;2.30;99.90;;;1.71;92.28;102234.72;5250706;28;20063;-44
2024/01/08 10:25:03;;;;;;;2.00;0.90;;;2.20;99.90;;;1.57;93.00;102233.44;5255669;28;20062;-43
2024/01/08 10:27:36;;;;;;;2.35;0.82;;;2.00;99.90;;;1.46;92.76;102234.09;5258279;28;20461;-43
2024/01/08 10:30:12;;;;;;;6.45;1.42;;;1.90;99.90;;;1.43;92.78;102236.34;5262583;28;20126;-44
2024/01/08 10:32:45;;;;;;;2.10;1.65;;;1.90;99.90;;;1.51;93.43;102232.84;5261393;28;20048;-44
2024/01/08 10:35:19;;;;;;;3.13;1.65;;;1.90;99.90;;;1.65;92.98;102236.72;5255499;28;20451;-44
2024/01/08 10:37:54;;;;;;;1.60;1.08;;;2.00;99.90;;;1.76;91.59;102229.25;5263302;28;20052;-45
2024/01/08 10:40:27;;;;;;;4.32;1.52;;;2.10;99.40;;;1.95;91.13;102224.09;5246821;28;20053;-45
2024/01/08 10:43:00;;;;;;;1.73;1.17;;;2.30;99.50;;;2.07;90.25;102222.66;5244014;28;20110;-45
2024/01/08 10:45:33;;;;;;;3.63;1.65;;;2.40;98.90;;;2.08;87.41;102220.97;5256056;28;20044;-44
2024/01/08 10:48:12;;;;;;;3.83;1.77;;;2.50;97.70;;;2.17;89.03;102216.69;5257395;28;20457;-43